sensor_id;sensor_type;location;lat;lon;timestamp;temperature;humidity
22416;DHT22;12204;50.600;4.608;2023-11-19T00:02:43;21.80;81.30
22416;DHT22;12204;50.600;4.608;2023-11-19T00:07:48;21.80;81.40
22416;DHT22;12204;50.600;4.608;2023-11-19T00:12:51;21.80;81.50
22416;DHT22;12204;50.600;4.608;2023-11-19T00:17:55;21.70;81.30
22416;DHT22;12204;50.600;4.608;2023-11-19T00:23:04;21.70;81.70
22416;DHT22;12204;50.600;4.608;2023-11-19T00:28:07;21.70;81.80
22416;DHT22;12204;50.600;4.608;2023-11-19T00:33:11;21.70;82.10
22416;DHT22;12204;50.600;4.608;2023-11-19T00:38:16;21.70;81.90
22416;DHT22;12204;50.600;4.608;2023-11-19T00:43:19;21.70;82.00
22416;DHT22;12204;50.600;4.608;2023-11-19T00:48:24;21.70;81.90
22416;DHT22;12204;50.600;4.608;2023-11-19T00:53:30;21.70;81.80
22416;DHT22;12204;50.600;4.608;2023-11-19T00:58:33;21.70;82.60
22416;DHT22;12204;50.600;4.608;2023-11-19T01:03:38;21.70;82.70
22416;DHT22;12204;50.600;4.608;2023-11-19T01:08:44;21.70;82.60
22416;DHT22;12204;50.600;4.608;2023-11-19T01:13:47;21.70;82.30
22416;DHT22;12204;50.600;4.608;2023-11-19T01:18:51;21.70;82.60
22416;DHT22;12204;50.600;4.608;2023-11-19T01:24:14;21.70;82.50
22416;DHT22;12204;50.600;4.608;2023-11-19T01:29:17;21.70;83.20
22416;DHT22;12204;50.600;4.608;2023-11-19T01:34:22;21.60;84.00
22416;DHT22;12204;50.600;4.608;2023-11-19T01:39:26;21.60;83.80
22416;DHT22;12204;50.600;4.608;2023-11-19T01:44:30;21.60;83.70
22416;DHT22;12204;50.600;4.608;2023-11-19T01:49:34;21.60;83.70
22416;DHT22;12204;50.600;4.608;2023-11-19T01:54:39;21.60;83.80
22416;DHT22;12204;50.600;4.608;2023-11-19T01:59:43;21.60;84.00
22416;DHT22;12204;50.600;4.608;2023-11-19T02:04:47;21.60;84.00
22416;DHT22;12204;50.600;4.608;2023-11-19T02:09:54;21.60;83.80
22416;DHT22;12204;50.600;4.608;2023-11-19T02:15:00;21.60;83.70
22416;DHT22;12204;50.600;4.608;2023-11-19T02:20:05;21.60;83.50
22416;DHT22;12204;50.600;4.608;2023-11-19T02:25:21;21.60;83.50
22416;DHT22;12204;50.600;4.608;2023-11-19T02:30:30;21.50;83.40
22416;DHT22;12204;50.600;4.608;2023-11-19T02:35:34;21.60;83.40
22416;DHT22;12204;50.600;4.608;2023-11-19T02:40:37;21.60;83.80
22416;DHT22;12204;50.600;4.608;2023-11-19T02:45:42;21.60;83.80
22416;DHT22;12204;50.600;4.608;2023-11-19T02:50:48;21.60;83.60
22416;DHT22;12204;50.600;4.608;2023-11-19T02:55:51;21.50;83.50
22416;DHT22;12204;50.600;4.608;2023-11-19T03:00:59;21.50;83.40
22416;DHT22;12204;50.600;4.608;2023-11-19T03:06:11;21.60;83.40
22416;DHT22;12204;50.600;4.608;2023-11-19T03:11:15;21.50;83.40
22416;DHT22;12204;50.600;4.608;2023-11-19T03:16:20;21.50;83.40
22416;DHT22;12204;50.600;4.608;2023-11-19T03:21:27;21.50;83.40
22416;DHT22;12204;50.600;4.608;2023-11-19T03:26:31;21.50;83.50
22416;DHT22;12204;50.600;4.608;2023-11-19T03:31:41;21.50;83.60
22416;DHT22;12204;50.600;4.608;2023-11-19T03:36:46;21.50;83.60
22416;DHT22;12204;50.600;4.608;2023-11-19T03:41:50;21.50;83.50
22416;DHT22;12204;50.600;4.608;2023-11-19T03:46:55;21.50;83.40
22416;DHT22;12204;50.600;4.608;2023-11-19T03:51:59;21.50;83.70
22416;DHT22;12204;50.600;4.608;2023-11-19T03:57:03;21.50;83.30
22416;DHT22;12204;50.600;4.608;2023-11-19T04:02:08;21.50;83.40
22416;DHT22;12204;50.600;4.608;2023-11-19T04:07:12;21.60;82.40
22416;DHT22;12204;50.600;4.608;2023-11-19T04:12:15;21.60;81.50
22416;DHT22;12204;50.600;4.608;2023-11-19T04:17:20;21.70;81.00
22416;DHT22;12204;50.600;4.608;2023-11-19T04:22:24;21.70;80.70
22416;DHT22;12204;50.600;4.608;2023-11-19T04:27:28;21.80;80.30
22416;DHT22;12204;50.600;4.608;2023-11-19T04:32:33;21.80;79.90
22416;DHT22;12204;50.600;4.608;2023-11-19T04:37:36;21.90;79.50
22416;DHT22;12204;50.600;4.608;2023-11-19T04:42:41;21.90;79.30
22416;DHT22;12204;50.600;4.608;2023-11-19T04:47:45;22.00;79.10
22416;DHT22;12204;50.600;4.608;2023-11-19T04:52:49;22.00;78.90
22416;DHT22;12204;50.600;4.608;2023-11-19T04:57:54;22.10;78.50
22416;DHT22;12204;50.600;4.608;2023-11-19T05:02:59;22.10;78.30
22416;DHT22;12204;50.600;4.608;2023-11-19T05:08:02;22.10;78.30
22416;DHT22;12204;50.600;4.608;2023-11-19T05:13:08;22.10;78.20
22416;DHT22;12204;50.600;4.608;2023-11-19T05:18:13;22.10;78.20
22416;DHT22;12204;50.600;4.608;2023-11-19T05:23:17;22.20;78.20
22416;DHT22;12204;50.600;4.608;2023-11-19T05:28:22;22.20;78.10
22416;DHT22;12204;50.600;4.608;2023-11-19T05:33:27;22.20;78.10
22416;DHT22;12204;50.600;4.608;2023-11-19T05:38:31;22.20;78.10
22416;DHT22;12204;50.600;4.608;2023-11-19T05:43:35;22.20;78.10
22416;DHT22;12204;50.600;4.608;2023-11-19T05:48:40;22.10;78.10
22416;DHT22;12204;50.600;4.608;2023-11-19T05:53:44;22.10;78.00
22416;DHT22;12204;50.600;4.608;2023-11-19T05:58:48;22.10;78.10
22416;DHT22;12204;50.600;4.608;2023-11-19T06:03:53;22.10;78.00
22416;DHT22;12204;50.600;4.608;2023-11-19T06:08:57;22.10;77.90
22416;DHT22;12204;50.600;4.608;2023-11-19T06:14:14;22.10;77.90
22416;DHT22;12204;50.600;4.608;2023-11-19T06:19:19;22.10;78.00
22416;DHT22;12204;50.600;4.608;2023-11-19T06:24:22;22.10;78.00
22416;DHT22;12204;50.600;4.608;2023-11-19T06:29:26;22.10;78.00
22416;DHT22;12204;50.600;4.608;2023-11-19T06:34:30;22.10;78.10
22416;DHT22;12204;50.600;4.608;2023-11-19T06:39:35;22.00;78.10
22416;DHT22;12204;50.600;4.608;2023-11-19T06:44:38;22.00;78.20
22416;DHT22;12204;50.600;4.608;2023-11-19T06:49:45;22.00;78.30
22416;DHT22;12204;50.600;4.608;2023-11-19T06:54:48;22.00;78.30
22416;DHT22;12204;50.600;4.608;2023-11-19T06:59:52;22.00;78.40
22416;DHT22;12204;50.600;4.608;2023-11-19T07:04:57;21.90;78.50
22416;DHT22;12204;50.600;4.608;2023-11-19T07:10:02;21.90;78.40
22416;DHT22;12204;50.600;4.608;2023-11-19T07:15:07;21.90;78.50
22416;DHT22;12204;50.600;4.608;2023-11-19T07:20:13;21.90;78.60
22416;DHT22;12204;50.600;4.608;2023-11-19T07:25:17;21.90;78.70
22416;DHT22;12204;50.600;4.608;2023-11-19T07:30:21;21.80;78.90
22416;DHT22;12204;50.600;4.608;2023-11-19T07:35:26;21.80;78.80
22416;DHT22;12204;50.600;4.608;2023-11-19T07:40:32;21.80;79.10
22416;DHT22;12204;50.600;4.608;2023-11-19T07:45:36;21.80;80.00
22416;DHT22;12204;50.600;4.608;2023-11-19T07:50:41;21.80;79.10
22416;DHT22;12204;50.600;4.608;2023-11-19T07:55:44;21.80;78.90
22416;DHT22;12204;50.600;4.608;2023-11-19T08:00:48;21.80;79.00
22416;DHT22;12204;50.600;4.608;2023-11-19T08:05:55;21.80;78.90
22416;DHT22;12204;50.600;4.608;2023-11-19T08:10:59;21.80;78.90
22416;DHT22;12204;50.600;4.608;2023-11-19T08:16:04;21.80;78.90
22416;DHT22;12204;50.600;4.608;2023-11-19T08:21:10;21.80;78.70
22416;DHT22;12204;50.600;4.608;2023-11-19T08:26:14;21.80;78.90
22416;DHT22;12204;50.600;4.608;2023-11-19T08:31:24;21.80;78.80
22416;DHT22;12204;50.600;4.608;2023-11-19T08:36:29;21.80;79.40
22416;DHT22;12204;50.600;4.608;2023-11-19T08:41:33;21.80;79.90
22416;DHT22;12204;50.600;4.608;2023-11-19T08:46:37;21.80;79.20
22416;DHT22;12204;50.600;4.608;2023-11-19T08:51:43;21.80;79.40
22416;DHT22;12204;50.600;4.608;2023-11-19T08:56:47;21.80;79.40
22416;DHT22;12204;50.600;4.608;2023-11-19T09:01:50;21.80;79.10
22416;DHT22;12204;50.600;4.608;2023-11-19T09:06:57;21.80;79.00
22416;DHT22;12204;50.600;4.608;2023-11-19T09:12:01;21.80;79.00
22416;DHT22;12204;50.600;4.608;2023-11-19T09:17:05;21.80;79.10
22416;DHT22;12204;50.600;4.608;2023-11-19T09:22:10;21.80;76.30
22416;DHT22;12204;50.600;4.608;2023-11-19T09:27:13;21.70;75.20
22416;DHT22;12204;50.600;4.608;2023-11-19T09:32:17;21.70;76.70
22416;DHT22;12204;50.600;4.608;2023-11-19T09:37:22;21.70;77.20
22416;DHT22;12204;50.600;4.608;2023-11-19T09:42:26;21.70;77.90
22416;DHT22;12204;50.600;4.608;2023-11-19T09:47:29;21.70;78.90
22416;DHT22;12204;50.600;4.608;2023-11-19T09:52:34;21.80;80.10
22416;DHT22;12204;50.600;4.608;2023-11-19T09:57:38;21.70;77.10
22416;DHT22;12204;50.600;4.608;2023-11-19T10:02:43;21.60;75.80
22416;DHT22;12204;50.600;4.608;2023-11-19T10:07:50;21.60;75.30
22416;DHT22;12204;50.600;4.608;2023-11-19T10:12:55;21.60;74.20
22416;DHT22;12204;50.600;4.608;2023-11-19T10:17:59;21.50;75.10
22416;DHT22;12204;50.600;4.608;2023-11-19T10:23:04;21.50;76.30
22416;DHT22;12204;50.600;4.608;2023-11-19T10:28:07;21.50;76.70
22416;DHT22;12204;50.600;4.608;2023-11-19T10:33:12;21.50;76.60
22416;DHT22;12204;50.600;4.608;2023-11-19T10:38:21;21.50;76.60
22416;DHT22;12204;50.600;4.608;2023-11-19T10:43:25;21.50;76.80
22416;DHT22;12204;50.600;4.608;2023-11-19T10:48:30;21.50;78.60
22416;DHT22;12204;50.600;4.608;2023-11-19T10:53:36;21.50;79.10
22416;DHT22;12204;50.600;4.608;2023-11-19T10:58:42;21.60;78.80
22416;DHT22;12204;50.600;4.608;2023-11-19T11:03:48;21.60;78.90
22416;DHT22;12204;50.600;4.608;2023-11-19T11:08:57;21.50;78.50
22416;DHT22;12204;50.600;4.608;2023-11-19T11:14:02;21.50;78.30
22416;DHT22;12204;50.600;4.608;2023-11-19T11:19:06;21.50;78.20
22416;DHT22;12204;50.600;4.608;2023-11-19T11:24:28;21.50;78.00
22416;DHT22;12204;50.600;4.608;2023-11-19T11:29:46;21.50;78.00
22416;DHT22;12204;50.600;4.608;2023-11-19T11:35:08;21.50;77.90
22416;DHT22;12204;50.600;4.608;2023-11-19T11:40:24;21.50;78.10
22416;DHT22;12204;50.600;4.608;2023-11-19T11:45:38;21.60;78.20
22416;DHT22;12204;50.600;4.608;2023-11-19T11:50:53;21.50;78.10
22416;DHT22;12204;50.600;4.608;2023-11-19T11:56:01;21.50;78.00
22416;DHT22;12204;50.600;4.608;2023-11-19T12:01:05;21.50;77.90
22416;DHT22;12204;50.600;4.608;2023-11-19T12:06:09;21.50;77.80
22416;DHT22;12204;50.600;4.608;2023-11-19T12:11:16;21.50;77.70
22416;DHT22;12204;50.600;4.608;2023-11-19T12:16:21;21.50;77.50
22416;DHT22;12204;50.600;4.608;2023-11-19T12:21:28;21.50;77.60
22416;DHT22;12204;50.600;4.608;2023-11-19T12:26:38;21.50;77.70
22416;DHT22;12204;50.600;4.608;2023-11-19T12:31:44;21.50;77.70
22416;DHT22;12204;50.600;4.608;2023-11-19T12:36:48;21.50;77.70
22416;DHT22;12204;50.600;4.608;2023-11-19T12:41:53;21.50;77.70
22416;DHT22;12204;50.600;4.608;2023-11-19T12:47:04;21.50;77.70
22416;DHT22;12204;50.600;4.608;2023-11-19T12:52:12;21.50;77.60
22416;DHT22;12204;50.600;4.608;2023-11-19T12:57:17;21.50;77.70
22416;DHT22;12204;50.600;4.608;2023-11-19T13:02:21;21.50;77.60
22416;DHT22;12204;50.600;4.608;2023-11-19T13:07:25;21.40;77.70
22416;DHT22;12204;50.600;4.608;2023-11-19T13:12:30;21.40;77.70
22416;DHT22;12204;50.600;4.608;2023-11-19T13:17:33;21.50;77.70
22416;DHT22;12204;50.600;4.608;2023-11-19T13:22:37;21.40;77.50
22416;DHT22;12204;50.600;4.608;2023-11-19T13:27:45;21.40;77.50
22416;DHT22;12204;50.600;4.608;2023-11-19T13:32:50;21.40;77.40
22416;DHT22;12204;50.600;4.608;2023-11-19T13:37:54;21.40;78.10
22416;DHT22;12204;50.600;4.608;2023-11-19T13:42:59;21.40;77.30
22416;DHT22;12204;50.600;4.608;2023-11-19T13:48:02;21.40;77.40
22416;DHT22;12204;50.600;4.608;2023-11-19T13:53:06;21.40;77.50
22416;DHT22;12204;50.600;4.608;2023-11-19T13:58:11;21.40;77.50
22416;DHT22;12204;50.600;4.608;2023-11-19T14:03:14;21.40;77.50
22416;DHT22;12204;50.600;4.608;2023-11-19T14:08:18;21.40;77.50
22416;DHT22;12204;50.600;4.608;2023-11-19T14:13:28;21.40;77.30
22416;DHT22;12204;50.600;4.608;2023-11-19T14:18:33;21.40;77.20
22416;DHT22;12204;50.600;4.608;2023-11-19T14:23:37;21.40;77.30
22416;DHT22;12204;50.600;4.608;2023-11-19T14:28:42;21.40;77.20
22416;DHT22;12204;50.600;4.608;2023-11-19T14:33:48;21.40;77.30
22416;DHT22;12204;50.600;4.608;2023-11-19T14:38:52;21.40;77.20
22416;DHT22;12204;50.600;4.608;2023-11-19T14:43:57;21.40;77.20
22416;DHT22;12204;50.600;4.608;2023-11-19T14:49:01;21.40;77.30
22416;DHT22;12204;50.600;4.608;2023-11-19T14:54:05;21.40;77.10
22416;DHT22;12204;50.600;4.608;2023-11-19T14:59:10;21.40;77.20
22416;DHT22;12204;50.600;4.608;2023-11-19T15:04:14;21.40;77.10
22416;DHT22;12204;50.600;4.608;2023-11-19T15:09:18;21.30;77.10
22416;DHT22;12204;50.600;4.608;2023-11-19T15:14:24;21.30;77.00
22416;DHT22;12204;50.600;4.608;2023-11-19T15:19:27;21.30;77.00
22416;DHT22;12204;50.600;4.608;2023-11-19T15:24:31;21.30;77.00
22416;DHT22;12204;50.600;4.608;2023-11-19T15:29:36;21.30;77.00
22416;DHT22;12204;50.600;4.608;2023-11-19T15:34:41;21.30;77.00
22416;DHT22;12204;50.600;4.608;2023-11-19T15:39:44;21.30;77.00
22416;DHT22;12204;50.600;4.608;2023-11-19T15:44:50;21.30;77.00
22416;DHT22;12204;50.600;4.608;2023-11-19T15:49:54;21.30;77.00
22416;DHT22;12204;50.600;4.608;2023-11-19T15:54:57;21.30;77.00
22416;DHT22;12204;50.600;4.608;2023-11-19T16:00:03;21.30;76.90
22416;DHT22;12204;50.600;4.608;2023-11-19T16:05:08;21.30;76.90
22416;DHT22;12204;50.600;4.608;2023-11-19T16:10:15;21.30;77.00
22416;DHT22;12204;50.600;4.608;2023-11-19T16:15:27;21.30;77.00
22416;DHT22;12204;50.600;4.608;2023-11-19T16:20:34;21.30;77.00
22416;DHT22;12204;50.600;4.608;2023-11-19T16:25:37;21.30;77.00
22416;DHT22;12204;50.600;4.608;2023-11-19T16:30:42;21.30;76.90
22416;DHT22;12204;50.600;4.608;2023-11-19T16:35:46;21.30;76.90
22416;DHT22;12204;50.600;4.608;2023-11-19T16:40:49;21.30;76.90
22416;DHT22;12204;50.600;4.608;2023-11-19T16:45:54;21.30;76.90
22416;DHT22;12204;50.600;4.608;2023-11-19T16:50:58;21.30;77.10
22416;DHT22;12204;50.600;4.608;2023-11-19T16:56:05;21.20;77.00
22416;DHT22;12204;50.600;4.608;2023-11-19T17:01:11;21.30;77.10
22416;DHT22;12204;50.600;4.608;2023-11-19T17:06:16;21.30;77.20
22416;DHT22;12204;50.600;4.608;2023-11-19T17:11:20;21.30;77.20
22416;DHT22;12204;50.600;4.608;2023-11-19T17:16:25;21.30;77.20
22416;DHT22;12204;50.600;4.608;2023-11-19T17:21:29;21.30;77.30
22416;DHT22;12204;50.600;4.608;2023-11-19T17:26:32;21.30;77.50
22416;DHT22;12204;50.600;4.608;2023-11-19T17:31:40;21.30;78.10
22416;DHT22;12204;50.600;4.608;2023-11-19T17:36:45;21.30;79.60
22416;DHT22;12204;50.600;4.608;2023-11-19T17:41:48;21.20;80.70
22416;DHT22;12204;50.600;4.608;2023-11-19T17:46:53;21.30;81.70
22416;DHT22;12204;50.600;4.608;2023-11-19T17:51:57;21.20;81.20
22416;DHT22;12204;50.600;4.608;2023-11-19T17:57:00;21.30;81.20
22416;DHT22;12204;50.600;4.608;2023-11-19T18:02:06;21.30;81.10
22416;DHT22;12204;50.600;4.608;2023-11-19T18:07:09;21.30;80.90
22416;DHT22;12204;50.600;4.608;2023-11-19T18:12:13;21.30;82.00
22416;DHT22;12204;50.600;4.608;2023-11-19T18:17:19;21.40;81.90
22416;DHT22;12204;50.600;4.608;2023-11-19T18:22:22;21.50;81.30
22416;DHT22;12204;50.600;4.608;2023-11-19T18:27:27;21.60;80.80
22416;DHT22;12204;50.600;4.608;2023-11-19T18:32:32;21.70;80.30
22416;DHT22;12204;50.600;4.608;2023-11-19T18:37:37;21.80;79.60
22416;DHT22;12204;50.600;4.608;2023-11-19T18:42:40;21.90;79.30
22416;DHT22;12204;50.600;4.608;2023-11-19T18:47:45;21.90;78.80
22416;DHT22;12204;50.600;4.608;2023-11-19T18:52:50;22.00;78.30
22416;DHT22;12204;50.600;4.608;2023-11-19T18:57:54;22.10;78.00
22416;DHT22;12204;50.600;4.608;2023-11-19T19:02:58;22.10;78.50
22416;DHT22;12204;50.600;4.608;2023-11-19T19:08:05;22.10;77.50
22416;DHT22;12204;50.600;4.608;2023-11-19T19:13:08;22.20;78.00
22416;DHT22;12204;50.600;4.608;2023-11-19T19:18:13;22.20;77.60
22416;DHT22;12204;50.600;4.608;2023-11-19T19:23:17;22.20;77.70
22416;DHT22;12204;50.600;4.608;2023-11-19T19:28:20;22.20;78.10
22416;DHT22;12204;50.600;4.608;2023-11-19T19:33:26;22.20;78.40
22416;DHT22;12204;50.600;4.608;2023-11-19T19:38:30;22.30;78.50
22416;DHT22;12204;50.600;4.608;2023-11-19T19:43:33;22.30;78.60
22416;DHT22;12204;50.600;4.608;2023-11-19T19:48:38;22.30;78.50
22416;DHT22;12204;50.600;4.608;2023-11-19T19:53:42;22.30;78.40
22416;DHT22;12204;50.600;4.608;2023-11-19T19:58:46;22.30;78.70
22416;DHT22;12204;50.600;4.608;2023-11-19T20:03:51;22.30;78.80
22416;DHT22;12204;50.600;4.608;2023-11-19T20:08:54;22.30;78.60
22416;DHT22;12204;50.600;4.608;2023-11-19T20:13:58;22.30;78.70
22416;DHT22;12204;50.600;4.608;2023-11-19T20:19:03;22.40;78.80
22416;DHT22;12204;50.600;4.608;2023-11-19T20:24:07;22.30;78.80
22416;DHT22;12204;50.600;4.608;2023-11-19T20:29:11;22.30;78.70
22416;DHT22;12204;50.600;4.608;2023-11-19T20:34:16;22.30;78.60
22416;DHT22;12204;50.600;4.608;2023-11-19T20:39:19;22.30;78.60
22416;DHT22;12204;50.600;4.608;2023-11-19T20:44:23;22.30;79.30
22416;DHT22;12204;50.600;4.608;2023-11-19T20:49:28;22.30;78.50
22416;DHT22;12204;50.600;4.608;2023-11-19T20:54:32;22.30;78.40
22416;DHT22;12204;50.600;4.608;2023-11-19T20:59:38;22.20;78.30
22416;DHT22;12204;50.600;4.608;2023-11-19T21:04:44;22.20;78.40
22416;DHT22;12204;50.600;4.608;2023-11-19T21:09:47;22.20;78.20
22416;DHT22;12204;50.600;4.608;2023-11-19T21:14:51;22.20;78.20
22416;DHT22;12204;50.600;4.608;2023-11-19T21:19:56;22.20;78.40
22416;DHT22;12204;50.600;4.608;2023-11-19T21:25:00;22.20;78.40
22416;DHT22;12204;50.600;4.608;2023-11-19T21:30:04;22.20;78.70
22416;DHT22;12204;50.600;4.608;2023-11-19T21:35:10;22.20;78.90
22416;DHT22;12204;50.600;4.608;2023-11-19T21:40:14;22.20;78.90
22416;DHT22;12204;50.600;4.608;2023-11-19T21:45:17;22.30;78.80
22416;DHT22;12204;50.600;4.608;2023-11-19T21:50:22;22.30;78.80
22416;DHT22;12204;50.600;4.608;2023-11-19T21:55:26;22.30;78.90
22416;DHT22;12204;50.600;4.608;2023-11-19T22:00:33;22.30;79.00
22416;DHT22;12204;50.600;4.608;2023-11-19T22:05:38;22.30;79.00
22416;DHT22;12204;50.600;4.608;2023-11-19T22:10:41;22.30;78.90
22416;DHT22;12204;50.600;4.608;2023-11-19T22:15:45;22.30;78.80
22416;DHT22;12204;50.600;4.608;2023-11-19T22:20:49;22.30;78.70
22416;DHT22;12204;50.600;4.608;2023-11-19T22:25:53;22.30;79.40
22416;DHT22;12204;50.600;4.608;2023-11-19T22:30:56;22.40;78.60
22416;DHT22;12204;50.600;4.608;2023-11-19T22:36:01;22.30;78.60
22416;DHT22;12204;50.600;4.608;2023-11-19T22:41:06;22.30;78.50
22416;DHT22;12204;50.600;4.608;2023-11-19T22:46:12;22.30;78.40
22416;DHT22;12204;50.600;4.608;2023-11-19T22:51:18;22.30;78.40
22416;DHT22;12204;50.600;4.608;2023-11-19T22:56:22;22.30;78.40
22416;DHT22;12204;50.600;4.608;2023-11-19T23:01:26;22.30;78.60
22416;DHT22;12204;50.600;4.608;2023-11-19T23:06:31;22.30;78.60
22416;DHT22;12204;50.600;4.608;2023-11-19T23:11:34;22.30;78.50
22416;DHT22;12204;50.600;4.608;2023-11-19T23:16:38;22.30;78.50
22416;DHT22;12204;50.600;4.608;2023-11-19T23:21:43;22.30;78.40
22416;DHT22;12204;50.600;4.608;2023-11-19T23:26:47;22.30;79.20
22416;DHT22;12204;50.600;4.608;2023-11-19T23:31:50;22.30;78.30
22416;DHT22;12204;50.600;4.608;2023-11-19T23:36:55;22.30;78.30
22416;DHT22;12204;50.600;4.608;2023-11-19T23:41:58;22.30;78.40
22416;DHT22;12204;50.600;4.608;2023-11-19T23:47:02;22.30;78.40
22416;DHT22;12204;50.600;4.608;2023-11-19T23:52:07;22.30;78.50
22416;DHT22;12204;50.600;4.608;2023-11-19T23:57:11;22.20;78.50
